Time;durP1;ratioP1;P1;durP2;ratioP2;P2;SDS_P1;SDS_P2;PMS_P1;PMS_P2;Temp;Humidity;BMP_temperature;BMP_pressure;BME280_temperature;BME280_humidity;BME280_pressure;Samples;Min_cycle;Max_cycle;Signal;HPM_P1;HPM_P2
2024/01/23 00:01:23;;;;;;;8.6;3.8;;;;;;;4.49;81.25;98801.666666667;;;;
2024/01/23 00:11:23;;;;;;;8.6;3.8;;;;;;;4.42;81.88;98806.666666667;;;;
2024/01/23 00:21:23;;;;;;;8.6;3.8;;;;;;;4.48;81.13;98801.666666667;;;;
2024/01/23 00:32:25;;;;;;;8.6;3.7;;;;;;;4.52;81.38;98805;;;;
2024/01/23 00:42:23;;;;;;;8.6;3.7;;;;;;;4.29;82.49;98825;;;;
2024/01/23 00:53:23;;;;;;;8.6;3.7;;;;;;;4.15;83.36;98840;;;;
2024/01/23 01:04:23;;;;;;;7.7;4;;;;;;;4.18;84.01;98848.333333333;;;;
2024/01/23 01:14:24;;;;;;;7.7;4;;;;;;;4.14;83.99;98853.333333333;;;;
2024/01/23 01:24:23;;;;;;;7.7;4;;;;;;;3.92;84.75;98840;;;;
2024/01/23 01:34:23;;;;;;;6.4;3.6;;;;;;;3.9;84.84;98828.333333333;;;;
2024/01/23 01:45:23;;;;;;;6.4;3.6;;;;;;;3.75;85.36;98815;;;;
2024/01/23 01:55:23;;;;;;;6.4;3.6;;;;;;;3.72;85.15;98806.666666667;;;;
2024/01/23 02:05:23;;;;;;;10.1;4.1;;;;;;;3.55;85.6;98808.333333333;;;;
2024/01/23 02:15:23;;;;;;;10.1;4.1;;;;;;;3.67;85.34;98806.666666667;;;;
2024/01/23 02:25:23;;;;;;;10.1;4.1;;;;;;;3.68;85.17;98808.333333333;;;;
2024/01/23 02:35:23;;;;;;;6.7;4;;;;;;;3.82;84.86;98820;;;;
2024/01/23 02:45:23;;;;;;;6.7;4;;;;;;;3.84;84.75;98830;;;;
2024/01/23 02:55:23;;;;;;;6.1;4.1;;;;;;;3.9;84.85;98833.333333333;;;;
2024/01/23 03:06:23;;;;;;;6.1;4.1;;;;;;;3.52;86.53;98820;;;;
2024/01/23 03:16:23;;;;;;;6.1;4.1;;;;;;;3.64;85.92;98818.333333333;;;;
2024/01/23 03:26:23;;;;;;;8.1;4.1;;;;;;;3.64;85.67;98818.333333333;;;;
2024/01/23 03:36:24;;;;;;;8.1;4.1;;;;;;;3.65;85.31;98820;;;;
2024/01/23 03:46:23;;;;;;;8.1;4.1;;;;;;;3.67;85.39;98836.666666667;;;;
2024/01/23 03:57:23;;;;;;;7.2;3.8;;;;;;;3.85;85;98835;;;;
2024/01/23 04:07:23;;;;;;;7.2;3.8;;;;;;;3.87;84.31;98836.666666667;;;;
2024/01/23 04:17:24;;;;;;;7.2;3.8;;;;;;;3.73;84.09;98836.666666667;;;;
2024/01/23 04:27:23;;;;;;;6.3;3.3;;;;;;;3.65;83.97;98856.666666667;;;;
2024/01/23 04:38:23;;;;;;;6.3;3.3;;;;;;;3.61;83.56;98865;;;;
2024/01/23 04:49:24;;;;;;;6.3;3.3;;;;;;;3.47;84.1;98858.333333333;;;;
2024/01/23 04:59:23;;;;;;;9;4;;;;;;;3.35;84.44;98866.666666667;;;;
2024/01/23 05:09:24;;;;;;;9;4;;;;;;;3.34;83.61;98856.666666667;;;;
2024/01/23 05:20:23;;;;;;;9;4;;;;;;;3.12;83.71;98871.666666667;;;;
2024/01/23 05:30:24;;;;;;;9.3;5;;;;;;;2.91;83.6;98878.333333333;;;;
2024/01/23 05:40:23;;;;;;;9.3;5;;;;;;;2.75;84.04;98893.333333333;;;;
2024/01/23 05:51:24;;;;;;;9.3;5;;;;;;;2.49;83.99;98903.333333333;;;;
2024/01/23 06:01:24;;;;;;;8.5;4.7;;;;;;;2.28;83.85;98915;;;;
2024/01/23 06:12:23;;;;;;;8.5;4.7;;;;;;;2.04;84.21;98910;;;;
2024/01/23 06:22:24;;;;;;;8.5;4.7;;;;;;;1.97;86.19;98916.666666667;;;;
2024/01/23 06:32:23;;;;;;;8.3;4.8;;;;;;;1.9;85.23;98916.666666667;;;;
2024/01/23 06:42:24;;;;;;;8.3;4.8;;;;;;;1.66;85.39;98943.333333333;;;;
2024/01/23 06:53:23;;;;;;;8.3;4.8;;;;;;;1.5;85.21;98960;;;;
2024/01/23 07:03:24;;;;;;;8.6;4.9;;;;;;;1.34;85.52;98973.333333333;;;;
2024/01/23 07:13:24;;;;;;;8.6;4.9;;;;;;;1.31;86.24;98985;;;;
2024/01/23 07:24:24;;;;;;;8.6;4.9;;;;;;;1.39;86.57;98991.666666667;;;;
2024/01/23 07:35:24;;;;;;;12.7;6.6;;;;;;;1.53;87.28;99013.333333333;;;;
2024/01/23 07:45:24;;;;;;;12.7;6.6;;;;;;;1.72;88.46;99015;;;;
2024/01/23 07:56:24;;;;;;;10.8;6.2;;;;;;;2.25;88.84;99028.333333333;;;;
2024/01/23 08:06:24;;;;;;;10.8;6.2;;;;;;;2.79;88.67;99040;;;;
2024/01/23 08:17:24;;;;;;;10.8;6.2;;;;;;;3.36;87.87;99061.666666667;;;;
2024/01/23 08:27:24;;;;;;;12.9;6.7;;;;;;;3.98;85.63;99080;;;;
2024/01/23 08:38:24;;;;;;;12.9;6.7;;;;;;;4.38;83.51;99093.333333333;;;;
2024/01/23 08:49:24;;;;;;;12.9;6.7;;;;;;;4.52;82.31;99090;;;;
2024/01/23 08:59:24;;;;;;;18.8;10.6;;;;;;;4.65;81.78;99098.333333333;;;;
2024/01/23 09:09:24;;;;;;;18.8;10.6;;;;;;;5.18;80.43;99111.666666667;;;;
2024/01/23 09:20:24;;;;;;;18.8;10.6;;;;;;;5.66;79.71;99106.666666667;;;;
2024/01/23 09:31:24;;;;;;;13.1;7.9;;;;;;;5.91;77.7;99115;;;;
2024/01/23 09:42:24;;;;;;;13.1;7.9;;;;;;;6;76.83;99115;;;;
2024/01/23 09:52:24;;;;;;;13.1;7.9;;;;;;;6.26;76.26;99115;;;;
2024/01/23 10:03:24;;;;;;;9.1;5.4;;;;;;;6.53;75.67;99116.666666667;;;;
2024/01/23 10:14:24;;;;;;;9.1;5.4;;;;;;;6.72;74.51;99128.333333333;;;;
2024/01/23 10:24:24;;;;;;;11.4;6.5;;;;;;;6.71;74.32;99133.333333333;;;;
2024/01/23 10:35:24;;;;;;;11.4;6.5;;;;;;;6.74;72.85;99140;;;;
2024/01/23 10:45:24;;;;;;;11.4;6.5;;;;;;;6.58;73.67;99151.666666667;;;;
2024/01/23 10:56:24;;;;;;;14.7;7.3;;;;;;;6.43;74.27;99163.333333333;;;;
2024/01/23 11:07:24;;;;;;;14.7;7.3;;;;;;;6.36;75.82;99175;;;;
2024/01/23 11:17:24;;;;;;;14.7;7.3;;;;;;;6.3;76.61;99181.666666667;;;;
2024/01/23 11:28:24;;;;;;;12.7;7.1;;;;;;;6.07;78.79;99190;;;;
2024/01/23 11:38:24;;;;;;;12.7;7.1;;;;;;;5.88;80.28;99200;;;;
2024/01/23 11:49:24;;;;;;;12.7;7.1;;;;;;;5.87;80.54;99208.333333333;;;;
2024/01/23 11:59:24;;;;;;;13.1;7.3;;;;;;;5.76;80.55;99210;;;;
2024/01/23 12:10:24;;;;;;;13.1;7.3;;;;;;;5.72;80.91;99220;;;;
2024/01/23 12:21:24;;;;;;;13.1;7.3;;;;;;;5.52;81.12;99225;;;;
2024/01/23 12:31:24;;;;;;;13.6;7.9;;;;;;;5.89;80.75;99228.333333333;;;;
2024/01/23 12:42:24;;;;;;;13.6;7.9;;;;;;;6.13;80.12;99231.666666667;;;;
2024/01/23 12:52:24;;;;;;;13.6;7.9;;;;;;;6.69;78.86;99231.666666667;;;;
2024/01/23 13:03:24;;;;;;;15.1;7;;;;;;;6.63;76.24;99240;;;;
2024/01/23 13:13:24;;;;;;;15.1;7;;;;;;;6.61;75.31;99255;;;;
2024/01/23 13:24:24;;;;;;;10.9;6.7;;;;;;;6.46;74.75;99260;;;;
2024/01/23 13:35:24;;;;;;;10.9;6.7;;;;;;;6.78;74.3;99248.333333333;;;;
2024/01/23 13:45:26;;;;;;;10.9;6.7;;;;;;;6.94;72.82;99268.333333333;;;;
2024/01/23 13:56:24;;;;;;;14.7;7.5;;;;;;;6.8;72.62;99295;;;;
2024/01/23 14:07:24;;;;;;;14.7;7.5;;;;;;;6.71;73.16;99310;;;;
2024/01/23 14:17:24;;;;;;;14.7;7.5;;;;;;;6.4;73;99316.666666667;;;;
2024/01/23 14:27:24;;;;;;;11.4;6.5;;;;;;;6.3;73.36;99325;;;;
2024/01/23 14:38:25;;;;;;;11.4;6.5;;;;;;;6.24;74.01;99340;;;;
2024/01/23 14:48:24;;;;;;;11.4;6.5;;;;;;;6.02;74.55;99358.333333333;;;;
2024/01/23 14:59:24;;;;;;;12.1;6.8;;;;;;;5.75;75.86;99373.333333333;;;;
2024/01/23 15:10:24;;;;;;;12.1;6.8;;;;;;;5.67;75.15;99378.333333333;;;;
2024/01/23 15:21:24;;;;;;;12.1;6.8;;;;;;;5.55;74.99;99386.666666667;;;;
2024/01/23 15:32:24;;;;;;;10;5.9;;;;;;;5.21;75.88;99405;;;;
2024/01/23 15:42:24;;;;;;;10;5.9;;;;;;;4.91;76.45;99420;;;;
2024/01/23 15:52:24;;;;;;;10;5.9;;;;;;;4.75;77.2;99453.333333333;;;;
2024/01/23 16:02:24;;;;;;;14.1;6;;;;;;;4.81;76.64;99476.666666667;;;;
2024/01/23 16:13:24;;;;;;;14.1;6;;;;;;;4.89;74.56;99490;;;;
2024/01/23 16:23:24;;;;;;;14.1;6;;;;;;;4.98;73.22;99500;;;;
2024/01/23 16:34:24;;;;;;;12;6.5;;;;;;;5.06;72.46;99500;;;;
2024/01/23 16:44:24;;;;;;;12;6.5;;;;;;;5.04;72.44;99515;;;;
2024/01/23 16:55:24;;;;;;;12.8;5.5;;;;;;;5.14;72.14;99535;;;;
2024/01/23 17:05:24;;;;;;;12.8;5.5;;;;;;;5.14;72.18;99551.666666667;;;;
2024/01/23 17:16:24;;;;;;;12.8;5.5;;;;;;;5.15;72.17;99548.333333333;;;;
2024/01/23 17:26:24;;;;;;;13.7;6.3;;;;;;;5.15;72.07;99555;;;;
2024/01/23 17:37:24;;;;;;;13.7;6.3;;;;;;;5.24;71.54;99566.666666667;;;;
2024/01/23 17:47:24;;;;;;;13.7;6.3;;;;;;;5.31;71.42;99576.666666667;;;;
2024/01/23 17:57:24;;;;;;;9.3;5.4;;;;;;;5.2;71.64;99586.666666667;;;;
2024/01/23 18:07:24;;;;;;;9.3;5.4;;;;;;;5.12;72.07;99606.666666667;;;;
2024/01/23 18:18:25;;;;;;;9.3;5.4;;;;;;;5.11;73.11;99616.666666667;;;;
2024/01/23 18:28:24;;;;;;;12.6;6.4;;;;;;;5.09;73.41;99616.666666667;;;;
2024/01/23 18:39:25;;;;;;;12.6;6.4;;;;;;;5.16;73.59;99621.666666667;;;;
2024/01/23 18:50:25;;;;;;;12.6;6.4;;;;;;;5.21;73.84;99625;;;;
2024/01/23 19:00:24;;;;;;;13.6;6.6;;;;;;;5.27;73.62;99645;;;;
2024/01/23 19:11:24;;;;;;;13.6;6.6;;;;;;;5.27;74.12;99651.666666667;;;;
2024/01/23 19:21:24;;;;;;;13.6;6.6;;;;;;;5.27;74.91;99651.666666667;;;;
2024/01/23 19:32:24;;;;;;;10.1;5.5;;;;;;;5.3;74.38;99650;;;;
2024/01/23 19:42:24;;;;;;;10.1;5.5;;;;;;;5.3;74.05;99650;;;;
2024/01/23 19:53:24;;;;;;;10.7;5.7;;;;;;;5.34;73.54;99668.333333333;;;;
2024/01/23 20:04:25;;;;;;;10.7;5.7;;;;;;;5.34;74.35;99668.333333333;;;;
2024/01/23 20:14:26;;;;;;;10.7;5.7;;;;;;;5.22;74.91;99648.333333333;;;;
2024/01/23 20:25:24;;;;;;;11.7;5.3;;;;;;;5.13;75.04;99638.333333333;;;;
2024/01/23 20:35:24;;;;;;;11.7;5.3;;;;;;;5.09;74.7;99646.666666667;;;;
2024/01/23 20:46:24;;;;;;;11.7;5.3;;;;;;;5.08;74.57;99648.333333333;;;;
2024/01/23 20:57:24;;;;;;;10.6;5;;;;;;;5;74.53;99653.333333333;;;;
2024/01/23 21:07:24;;;;;;;10.6;5;;;;;;;4.99;74.54;99658.333333333;;;;
2024/01/23 21:17:24;;;;;;;10.6;5;;;;;;;4.95;74.71;99673.333333333;;;;
2024/01/23 21:28:24;;;;;;;13.5;5.9;;;;;;;4.9;74.73;99668.333333333;;;;
2024/01/23 21:38:24;;;;;;;13.5;5.9;;;;;;;4.77;75.1;99676.666666667;;;;
2024/01/23 21:49:26;;;;;;;13.5;5.9;;;;;;;4.58;75.4;99668.333333333;;;;
2024/01/23 21:59:24;;;;;;;16;9;;;;;;;4.36;75.69;99668.333333333;;;;
2024/01/23 22:10:24;;;;;;;16;9;;;;;;;4.06;76.03;99668.333333333;;;;
2024/01/23 22:21:24;;;;;;;16;9;;;;;;;3.75;76.69;99670;;;;
2024/01/23 22:32:25;;;;;;;20;6.6;;;;;;;3.48;77.47;99645;;;;
2024/01/23 22:43:24;;;;;;;20;6.6;;;;;;;3.32;77.98;99635;;;;
2024/01/23 22:54:24;;;;;;;11.5;5.8;;;;;;;3.09;77.99;99616.666666667;;;;
2024/01/23 23:04:24;;;;;;;11.5;5.8;;;;;;;2.85;79.22;99608.333333333;;;;
2024/01/23 23:15:24;;;;;;;11.5;5.8;;;;;;;2.68;79.23;99588.333333333;;;;
2024/01/23 23:26:24;;;;;;;10;5.4;;;;;;;2.55;79.32;99596.666666667;;;;
2024/01/23 23:36:25;;;;;;;10;5.4;;;;;;;2.43;80.39;99576.666666667;;;;
2024/01/23 23:47:24;;;;;;;10;5.4;;;;;;;2.33;80.41;99573.333333333;;;;
2024/01/23 23:57:24;;;;;;;10.1;5.6;;;;;;;2.34;80.96;99565;;;;
